sensor_id;sensor_type;location;lat;lon;timestamp;temperature;humidity
4631;DHT22;2328;48.170;11.602;2022-12-01T00:00:06;1.30;99.90
4631;DHT22;2328;48.170;11.602;2022-12-01T00:02:35;1.30;99.90
4631;DHT22;2328;48.170;11.602;2022-12-01T00:05:04;1.10;99.90
4631;DHT22;2328;48.170;11.602;2022-12-01T00:07:32;1.30;99.90
4631;DHT22;2328;48.170;11.602;2022-12-01T00:10:01;1.60;99.90
4631;DHT22;2328;48.170;11.602;2022-12-01T00:12:47;1.50;99.90
4631;DHT22;2328;48.170;11.602;2022-12-01T00:15:17;1.30;99.90
4631;DHT22;2328;48.170;11.602;2022-12-01T00:17:47;0.90;99.90
4631;DHT22;2328;48.170;11.602;2022-12-01T00:20:16;1.00;99.90
4631;DHT22;2328;48.170;11.602;2022-12-01T00:22:47;1.30;99.90
4631;DHT22;2328;48.170;11.602;2022-12-01T00:25:17;1.10;99.90
4631;DHT22;2328;48.170;11.602;2022-12-01T00:27:47;1.60;99.90
4631;DHT22;2328;48.170;11.602;2022-12-01T00:30:19;1.10;99.90
4631;DHT22;2328;48.170;11.602;2022-12-01T00:32:49;0.80;99.90
4631;DHT22;2328;48.170;11.602;2022-12-01T00:35:17;1.10;99.90
4631;DHT22;2328;48.170;11.602;2022-12-01T00:37:45;0.50;99.90
4631;DHT22;2328;48.170;11.602;2022-12-01T00:40:16;1.10;99.90
4631;DHT22;2328;48.170;11.602;2022-12-01T00:42:45;0.20;99.90
4631;DHT22;2328;48.170;11.602;2022-12-01T00:45:14;0.50;99.90
4631;DHT22;2328;48.170;11.602;2022-12-01T00:47:46;1.10;99.90
4631;DHT22;2328;48.170;11.602;2022-12-01T00:50:15;0.40;99.90
4631;DHT22;2328;48.170;11.602;2022-12-01T00:52:44;1.10;99.90
4631;DHT22;2328;48.170;11.602;2022-12-01T00:55:14;1.20;99.90
4631;DHT22;2328;48.170;11.602;2022-12-01T00:57:44;1.00;99.90
4631;DHT22;2328;48.170;11.602;2022-12-01T01:00:14;1.10;99.90
4631;DHT22;2328;48.170;11.602;2022-12-01T01:02:44;1.00;99.90
4631;DHT22;2328;48.170;11.602;2022-12-01T01:05:14;0.80;99.90
4631;DHT22;2328;48.170;11.602;2022-12-01T01:07:42;1.00;99.90
4631;DHT22;2328;48.170;11.602;2022-12-01T01:10:30;1.00;99.90
4631;DHT22;2328;48.170;11.602;2022-12-01T01:13:00;0.80;99.90
4631;DHT22;2328;48.170;11.602;2022-12-01T01:15:29;1.10;99.90
4631;DHT22;2328;48.170;11.602;2022-12-01T01:18:00;0.60;99.90
4631;DHT22;2328;48.170;11.602;2022-12-01T01:20:29;0.40;99.90
4631;DHT22;2328;48.170;11.602;2022-12-01T01:22:58;0.70;99.90
4631;DHT22;2328;48.170;11.602;2022-12-01T01:25:26;0.70;99.90
4631;DHT22;2328;48.170;11.602;2022-12-01T01:27:54;0.90;99.90
4631;DHT22;2328;48.170;11.602;2022-12-01T01:30:24;1.20;99.90
4631;DHT22;2328;48.170;11.602;2022-12-01T01:32:53;0.90;99.90
4631;DHT22;2328;48.170;11.602;2022-12-01T01:35:22;1.00;99.90
4631;DHT22;2328;48.170;11.602;2022-12-01T01:37:51;1.20;99.90
4631;DHT22;2328;48.170;11.602;2022-12-01T01:40:19;1.20;99.90
4631;DHT22;2328;48.170;11.602;2022-12-01T01:42:48;1.40;99.90
4631;DHT22;2328;48.170;11.602;2022-12-01T01:45:20;1.40;99.90
4631;DHT22;2328;48.170;11.602;2022-12-01T01:47:51;1.30;99.90
4631;DHT22;2328;48.170;11.602;2022-12-01T01:50:24;0.60;99.90
4631;DHT22;2328;48.170;11.602;2022-12-01T01:52:58;1.40;99.90
4631;DHT22;2328;48.170;11.602;2022-12-01T01:55:28;1.30;99.90
4631;DHT22;2328;48.170;11.602;2022-12-01T01:57:57;0.60;99.90
4631;DHT22;2328;48.170;11.602;2022-12-01T02:00:25;1.30;99.90
4631;DHT22;2328;48.170;11.602;2022-12-01T02:02:56;0.50;99.90
4631;DHT22;2328;48.170;11.602;2022-12-01T02:05:30;1.30;99.90
4631;DHT22;2328;48.170;11.602;2022-12-01T02:08:01;1.30;99.90
4631;DHT22;2328;48.170;11.602;2022-12-01T02:10:40;1.10;99.90
4631;DHT22;2328;48.170;11.602;2022-12-01T02:13:19;0.90;99.90
4631;DHT22;2328;48.170;11.602;2022-12-01T02:15:55;0.60;99.90
4631;DHT22;2328;48.170;11.602;2022-12-01T02:18:33;1.10;99.90
4631;DHT22;2328;48.170;11.602;2022-12-01T02:21:18;0.90;99.90
4631;DHT22;2328;48.170;11.602;2022-12-01T02:27:00;1.40;99.90
4631;DHT22;2328;48.170;11.602;2022-12-01T02:32:29;0.80;99.90
4631;DHT22;2328;48.170;11.602;2022-12-01T02:35:02;0.50;99.90
4631;DHT22;2328;48.170;11.602;2022-12-01T02:37:34;1.00;99.90
4631;DHT22;2328;48.170;11.602;2022-12-01T02:40:10;1.00;99.90
4631;DHT22;2328;48.170;11.602;2022-12-01T02:42:46;1.20;99.90
4631;DHT22;2328;48.170;11.602;2022-12-01T02:45:29;1.40;99.90
4631;DHT22;2328;48.170;11.602;2022-12-01T02:48:01;1.00;99.90
4631;DHT22;2328;48.170;11.602;2022-12-01T02:50:34;0.90;99.90
4631;DHT22;2328;48.170;11.602;2022-12-01T02:53:05;1.30;99.90
4631;DHT22;2328;48.170;11.602;2022-12-01T02:55:36;1.30;99.90
4631;DHT22;2328;48.170;11.602;2022-12-01T02:58:12;1.10;99.90
4631;DHT22;2328;48.170;11.602;2022-12-01T03:01:00;0.80;99.90
4631;DHT22;2328;48.170;11.602;2022-12-01T03:03:44;1.20;99.90
4631;DHT22;2328;48.170;11.602;2022-12-01T03:06:24;1.30;99.90
4631;DHT22;2328;48.170;11.602;2022-12-01T03:09:02;0.60;99.90
4631;DHT22;2328;48.170;11.602;2022-12-01T03:11:41;1.00;99.90
4631;DHT22;2328;48.170;11.602;2022-12-01T03:14:19;1.40;99.90
4631;DHT22;2328;48.170;11.602;2022-12-01T03:16:51;1.30;99.90
4631;DHT22;2328;48.170;11.602;2022-12-01T03:19:30;1.30;99.90
4631;DHT22;2328;48.170;11.602;2022-12-01T03:22:03;0.90;99.90
4631;DHT22;2328;48.170;11.602;2022-12-01T03:24:33;1.00;99.90
4631;DHT22;2328;48.170;11.602;2022-12-01T03:27:04;1.40;99.90
4631;DHT22;2328;48.170;11.602;2022-12-01T03:29:36;1.80;99.90
4631;DHT22;2328;48.170;11.602;2022-12-01T03:32:10;0.80;99.90
4631;DHT22;2328;48.170;11.602;2022-12-01T03:34:45;1.20;99.90
4631;DHT22;2328;48.170;11.602;2022-12-01T03:37:19;0.50;99.90
4631;DHT22;2328;48.170;11.602;2022-12-01T03:39:49;1.00;99.90
4631;DHT22;2328;48.170;11.602;2022-12-01T03:42:29;1.30;99.90
4631;DHT22;2328;48.170;11.602;2022-12-01T03:45:05;1.50;99.90
4631;DHT22;2328;48.170;11.602;2022-12-01T03:47:34;1.20;99.90
4631;DHT22;2328;48.170;11.602;2022-12-01T03:50:09;1.40;99.90
4631;DHT22;2328;48.170;11.602;2022-12-01T03:52:45;0.80;99.90
4631;DHT22;2328;48.170;11.602;2022-12-01T03:55:26;1.30;99.90
4631;DHT22;2328;48.170;11.602;2022-12-01T03:57:57;1.10;99.90
4631;DHT22;2328;48.170;11.602;2022-12-01T04:00:29;0.80;99.90
4631;DHT22;2328;48.170;11.602;2022-12-01T04:03:01;0.80;99.90
4631;DHT22;2328;48.170;11.602;2022-12-01T04:05:33;1.20;99.90
4631;DHT22;2328;48.170;11.602;2022-12-01T04:08:01;1.20;99.90
4631;DHT22;2328;48.170;11.602;2022-12-01T04:10:29;0.80;99.90
4631;DHT22;2328;48.170;11.602;2022-12-01T04:12:58;0.80;99.90
4631;DHT22;2328;48.170;11.602;2022-12-01T04:15:28;1.60;99.90
4631;DHT22;2328;48.170;11.602;2022-12-01T04:17:56;1.40;99.90
4631;DHT22;2328;48.170;11.602;2022-12-01T04:20:24;1.50;99.90
4631;DHT22;2328;48.170;11.602;2022-12-01T04:22:54;0.80;99.90
4631;DHT22;2328;48.170;11.602;2022-12-01T04:25:22;1.70;99.90
4631;DHT22;2328;48.170;11.602;2022-12-01T04:27:50;1.20;99.90
4631;DHT22;2328;48.170;11.602;2022-12-01T04:30:20;0.70;99.90
4631;DHT22;2328;48.170;11.602;2022-12-01T04:32:49;1.70;99.90
4631;DHT22;2328;48.170;11.602;2022-12-01T04:35:17;1.30;99.90
4631;DHT22;2328;48.170;11.602;2022-12-01T04:37:45;1.50;99.90
4631;DHT22;2328;48.170;11.602;2022-12-01T04:40:15;1.60;99.90
4631;DHT22;2328;48.170;11.602;2022-12-01T04:42:44;1.70;99.90
4631;DHT22;2328;48.170;11.602;2022-12-01T04:45:13;1.50;99.90
4631;DHT22;2328;48.170;11.602;2022-12-01T04:47:42;1.40;99.90
4631;DHT22;2328;48.170;11.602;2022-12-01T04:50:10;1.30;99.90
4631;DHT22;2328;48.170;11.602;2022-12-01T04:52:39;1.10;99.90
4631;DHT22;2328;48.170;11.602;2022-12-01T04:55:08;0.80;99.90
4631;DHT22;2328;48.170;11.602;2022-12-01T04:57:38;1.50;99.90
4631;DHT22;2328;48.170;11.602;2022-12-01T05:00:08;2.10;99.90
4631;DHT22;2328;48.170;11.602;2022-12-01T05:02:39;1.40;99.90
4631;DHT22;2328;48.170;11.602;2022-12-01T05:05:09;0.90;99.90
4631;DHT22;2328;48.170;11.602;2022-12-01T05:07:37;1.50;99.90
4631;DHT22;2328;48.170;11.602;2022-12-01T05:10:07;1.70;99.90
4631;DHT22;2328;48.170;11.602;2022-12-01T05:12:36;1.70;99.90
4631;DHT22;2328;48.170;11.602;2022-12-01T05:15:06;1.80;99.90
4631;DHT22;2328;48.170;11.602;2022-12-01T05:17:35;1.50;99.90
4631;DHT22;2328;48.170;11.602;2022-12-01T05:20:04;1.70;99.90
4631;DHT22;2328;48.170;11.602;2022-12-01T05:22:50;1.50;99.90
4631;DHT22;2328;48.170;11.602;2022-12-01T05:25:56;1.20;99.90
4631;DHT22;2328;48.170;11.602;2022-12-01T05:28:26;1.00;99.90
4631;DHT22;2328;48.170;11.602;2022-12-01T05:30:56;0.80;99.90
4631;DHT22;2328;48.170;11.602;2022-12-01T05:33:25;1.60;99.90
4631;DHT22;2328;48.170;11.602;2022-12-01T05:35:54;1.80;99.90
4631;DHT22;2328;48.170;11.602;2022-12-01T05:38:22;1.70;99.90
4631;DHT22;2328;48.170;11.602;2022-12-01T05:40:52;1.70;99.90
4631;DHT22;2328;48.170;11.602;2022-12-01T05:43:22;1.70;99.90
4631;DHT22;2328;48.170;11.602;2022-12-01T05:45:57;1.20;99.90
4631;DHT22;2328;48.170;11.602;2022-12-01T05:48:26;1.60;99.90
4631;DHT22;2328;48.170;11.602;2022-12-01T05:50:54;1.70;99.90
4631;DHT22;2328;48.170;11.602;2022-12-01T05:53:22;1.50;99.90
4631;DHT22;2328;48.170;11.602;2022-12-01T05:55:51;1.70;99.90
4631;DHT22;2328;48.170;11.602;2022-12-01T05:58:20;1.40;99.90
4631;DHT22;2328;48.170;11.602;2022-12-01T06:00:56;1.70;99.90
4631;DHT22;2328;48.170;11.602;2022-12-01T06:03:24;1.70;99.90
4631;DHT22;2328;48.170;11.602;2022-12-01T06:05:52;1.40;99.90
4631;DHT22;2328;48.170;11.602;2022-12-01T06:08:20;1.10;99.90
4631;DHT22;2328;48.170;11.602;2022-12-01T06:10:49;1.00;99.90
4631;DHT22;2328;48.170;11.602;2022-12-01T06:13:17;1.50;99.90
4631;DHT22;2328;48.170;11.602;2022-12-01T06:15:54;1.30;99.90
4631;DHT22;2328;48.170;11.602;2022-12-01T06:18:24;1.40;99.90
4631;DHT22;2328;48.170;11.602;2022-12-01T06:20:52;1.10;99.90
4631;DHT22;2328;48.170;11.602;2022-12-01T06:23:21;1.50;99.90
4631;DHT22;2328;48.170;11.602;2022-12-01T06:25:55;1.60;99.90
4631;DHT22;2328;48.170;11.602;2022-12-01T06:28:24;1.60;99.90
4631;DHT22;2328;48.170;11.602;2022-12-01T06:30:52;1.50;99.90
4631;DHT22;2328;48.170;11.602;2022-12-01T06:33:30;1.50;99.90
4631;DHT22;2328;48.170;11.602;2022-12-01T06:35:58;1.70;99.90
4631;DHT22;2328;48.170;11.602;2022-12-01T06:38:29;0.80;99.90
4631;DHT22;2328;48.170;11.602;2022-12-01T06:40:59;1.60;99.90
4631;DHT22;2328;48.170;11.602;2022-12-01T06:43:27;1.80;99.90
4631;DHT22;2328;48.170;11.602;2022-12-01T06:45:56;1.50;99.90
4631;DHT22;2328;48.170;11.602;2022-12-01T06:48:29;1.60;99.90
4631;DHT22;2328;48.170;11.602;2022-12-01T06:50:59;1.70;99.90
4631;DHT22;2328;48.170;11.602;2022-12-01T06:53:28;1.80;99.90
4631;DHT22;2328;48.170;11.602;2022-12-01T06:55:58;1.90;99.90
4631;DHT22;2328;48.170;11.602;2022-12-01T06:58:27;1.80;99.90
4631;DHT22;2328;48.170;11.602;2022-12-01T07:00:55;2.00;99.90
4631;DHT22;2328;48.170;11.602;2022-12-01T07:03:24;1.90;99.90
4631;DHT22;2328;48.170;11.602;2022-12-01T07:05:59;2.00;99.90
4631;DHT22;2328;48.170;11.602;2022-12-01T07:08:28;1.90;99.90
4631;DHT22;2328;48.170;11.602;2022-12-01T07:10:57;1.60;99.90
4631;DHT22;2328;48.170;11.602;2022-12-01T07:13:26;1.60;99.90
4631;DHT22;2328;48.170;11.602;2022-12-01T07:16:17;1.20;99.90
4631;DHT22;2328;48.170;11.602;2022-12-01T07:18:45;1.80;99.90
4631;DHT22;2328;48.170;11.602;2022-12-01T07:21:16;1.70;99.90
4631;DHT22;2328;48.170;11.602;2022-12-01T07:23:44;1.60;99.90
4631;DHT22;2328;48.170;11.602;2022-12-01T07:26:14;1.70;99.90
4631;DHT22;2328;48.170;11.602;2022-12-01T07:28:43;1.60;99.90
4631;DHT22;2328;48.170;11.602;2022-12-01T07:31:13;1.70;99.90
4631;DHT22;2328;48.170;11.602;2022-12-01T07:33:42;2.20;99.90
4631;DHT22;2328;48.170;11.602;2022-12-01T07:36:11;1.60;99.90
4631;DHT22;2328;48.170;11.602;2022-12-01T07:38:41;1.50;99.90
4631;DHT22;2328;48.170;11.602;2022-12-01T07:41:11;1.80;99.90
4631;DHT22;2328;48.170;11.602;2022-12-01T07:43:41;1.40;99.90
4631;DHT22;2328;48.170;11.602;2022-12-01T07:46:11;1.60;99.90
4631;DHT22;2328;48.170;11.602;2022-12-01T07:48:48;1.30;99.90
4631;DHT22;2328;48.170;11.602;2022-12-01T07:51:19;1.10;99.90
4631;DHT22;2328;48.170;11.602;2022-12-01T07:53:51;1.70;99.90
4631;DHT22;2328;48.170;11.602;2022-12-01T07:56:20;1.80;99.90
4631;DHT22;2328;48.170;11.602;2022-12-01T07:58:49;1.80;99.90
4631;DHT22;2328;48.170;11.602;2022-12-01T08:01:18;1.30;99.90
4631;DHT22;2328;48.170;11.602;2022-12-01T08:03:47;2.10;99.90
4631;DHT22;2328;48.170;11.602;2022-12-01T08:06:17;1.70;99.90
4631;DHT22;2328;48.170;11.602;2022-12-01T08:08:46;1.30;99.90
4631;DHT22;2328;48.170;11.602;2022-12-01T08:11:18;1.70;99.90
4631;DHT22;2328;48.170;11.602;2022-12-01T08:13:48;1.40;99.90
4631;DHT22;2328;48.170;11.602;2022-12-01T08:16:18;1.40;99.90
4631;DHT22;2328;48.170;11.602;2022-12-01T08:18:47;1.90;99.90
4631;DHT22;2328;48.170;11.602;2022-12-01T08:21:17;1.10;99.90
4631;DHT22;2328;48.170;11.602;2022-12-01T08:23:46;1.70;99.90
4631;DHT22;2328;48.170;11.602;2022-12-01T08:26:17;1.80;99.90
4631;DHT22;2328;48.170;11.602;2022-12-01T08:28:46;1.80;99.90
4631;DHT22;2328;48.170;11.602;2022-12-01T08:31:17;2.00;99.90
4631;DHT22;2328;48.170;11.602;2022-12-01T08:33:47;1.90;99.90
4631;DHT22;2328;48.170;11.602;2022-12-01T08:36:17;1.80;99.90
4631;DHT22;2328;48.170;11.602;2022-12-01T08:38:47;1.70;99.90
4631;DHT22;2328;48.170;11.602;2022-12-01T08:41:19;1.90;99.90
4631;DHT22;2328;48.170;11.602;2022-12-01T08:43:55;2.10;99.90
4631;DHT22;2328;48.170;11.602;2022-12-01T08:46:35;2.00;99.90
4631;DHT22;2328;48.170;11.602;2022-12-01T08:49:04;1.80;99.90
4631;DHT22;2328;48.170;11.602;2022-12-01T08:51:33;1.70;99.90
4631;DHT22;2328;48.170;11.602;2022-12-01T08:54:02;1.70;99.90
4631;DHT22;2328;48.170;11.602;2022-12-01T08:56:33;1.90;99.90
4631;DHT22;2328;48.170;11.602;2022-12-01T08:59:02;2.10;99.90
4631;DHT22;2328;48.170;11.602;2022-12-01T09:01:33;1.70;99.90
4631;DHT22;2328;48.170;11.602;2022-12-01T09:04:20;1.90;99.90
4631;DHT22;2328;48.170;11.602;2022-12-01T09:07:18;2.20;99.90
4631;DHT22;2328;48.170;11.602;2022-12-01T09:09:56;2.00;99.90
4631;DHT22;2328;48.170;11.602;2022-12-01T09:12:28;1.90;99.90
4631;DHT22;2328;48.170;11.602;2022-12-01T09:15:10;2.20;99.90
4631;DHT22;2328;48.170;11.602;2022-12-01T09:17:38;2.10;99.90
4631;DHT22;2328;48.170;11.602;2022-12-01T09:20:07;1.90;99.90
4631;DHT22;2328;48.170;11.602;2022-12-01T09:22:36;2.20;99.90
4631;DHT22;2328;48.170;11.602;2022-12-01T09:25:08;2.80;99.90
4631;DHT22;2328;48.170;11.602;2022-12-01T09:27:41;2.20;99.90
4631;DHT22;2328;48.170;11.602;2022-12-01T09:30:12;2.30;99.90
4631;DHT22;2328;48.170;11.602;2022-12-01T09:32:47;2.30;99.90
4631;DHT22;2328;48.170;11.602;2022-12-01T09:35:15;1.80;99.90
4631;DHT22;2328;48.170;11.602;2022-12-01T09:37:49;2.10;99.90
4631;DHT22;2328;48.170;11.602;2022-12-01T09:40:17;2.20;99.90
4631;DHT22;2328;48.170;11.602;2022-12-01T09:42:47;2.40;99.90
4631;DHT22;2328;48.170;11.602;2022-12-01T09:45:22;2.30;99.90
4631;DHT22;2328;48.170;11.602;2022-12-01T09:47:54;2.30;99.90
4631;DHT22;2328;48.170;11.602;2022-12-01T09:50:24;2.40;99.90
4631;DHT22;2328;48.170;11.602;2022-12-01T09:52:57;2.40;99.90
4631;DHT22;2328;48.170;11.602;2022-12-01T09:55:29;2.30;99.90
4631;DHT22;2328;48.170;11.602;2022-12-01T09:58:02;1.70;99.90
4631;DHT22;2328;48.170;11.602;2022-12-01T10:00:34;2.00;99.90
4631;DHT22;2328;48.170;11.602;2022-12-01T10:03:11;2.40;99.90
4631;DHT22;2328;48.170;11.602;2022-12-01T10:05:45;2.20;99.90
4631;DHT22;2328;48.170;11.602;2022-12-01T10:08:37;2.30;99.90
4631;DHT22;2328;48.170;11.602;2022-12-01T10:11:15;2.10;99.90
4631;DHT22;2328;48.170;11.602;2022-12-01T10:13:48;2.60;99.90
4631;DHT22;2328;48.170;11.602;2022-12-01T10:16:21;2.10;99.90
4631;DHT22;2328;48.170;11.602;2022-12-01T10:18:58;2.20;99.90
4631;DHT22;2328;48.170;11.602;2022-12-01T10:21:39;2.30;99.90
4631;DHT22;2328;48.170;11.602;2022-12-01T10:24:27;2.00;99.90
4631;DHT22;2328;48.170;11.602;2022-12-01T10:27:05;2.50;99.90
4631;DHT22;2328;48.170;11.602;2022-12-01T10:29:45;2.20;99.90
4631;DHT22;2328;48.170;11.602;2022-12-01T10:32:17;2.00;99.90
4631;DHT22;2328;48.170;11.602;2022-12-01T10:34:47;2.50;99.90
4631;DHT22;2328;48.170;11.602;2022-12-01T10:37:18;2.50;99.90
4631;DHT22;2328;48.170;11.602;2022-12-01T10:39:48;2.40;99.90
4631;DHT22;2328;48.170;11.602;2022-12-01T10:42:35;2.50;99.90
4631;DHT22;2328;48.170;11.602;2022-12-01T10:45:13;2.30;99.90
4631;DHT22;2328;48.170;11.602;2022-12-01T10:48:13;2.50;99.90
4631;DHT22;2328;48.170;11.602;2022-12-01T10:50:44;2.70;99.90
4631;DHT22;2328;48.170;11.602;2022-12-01T10:53:28;2.80;99.90
4631;DHT22;2328;48.170;11.602;2022-12-01T10:56:04;2.40;99.90
4631;DHT22;2328;48.170;11.602;2022-12-01T10:58:41;2.40;99.90
4631;DHT22;2328;48.170;11.602;2022-12-01T11:01:21;2.30;99.90
4631;DHT22;2328;48.170;11.602;2022-12-01T11:03:53;2.00;99.90
4631;DHT22;2328;48.170;11.602;2022-12-01T11:06:24;2.40;99.90
4631;DHT22;2328;48.170;11.602;2022-12-01T11:08:56;2.50;99.90
4631;DHT22;2328;48.170;11.602;2022-12-01T11:11:29;2.30;99.90
4631;DHT22;2328;48.170;11.602;2022-12-01T11:14:00;2.40;99.90
4631;DHT22;2328;48.170;11.602;2022-12-01T11:16:39;2.40;99.90
4631;DHT22;2328;48.170;11.602;2022-12-01T11:19:20;2.40;99.90
4631;DHT22;2328;48.170;11.602;2022-12-01T11:21:55;2.40;99.90
4631;DHT22;2328;48.170;11.602;2022-12-01T11:24:38;2.20;99.90
4631;DHT22;2328;48.170;11.602;2022-12-01T11:27:14;2.70;99.90
4631;DHT22;2328;48.170;11.602;2022-12-01T11:29:45;2.60;99.90
4631;DHT22;2328;48.170;11.602;2022-12-01T11:32:22;2.10;99.90
4631;DHT22;2328;48.170;11.602;2022-12-01T11:34:54;1.80;99.90
4631;DHT22;2328;48.170;11.602;2022-12-01T11:37:28;2.70;99.90
4631;DHT22;2328;48.170;11.602;2022-12-01T11:40:06;2.70;99.90
4631;DHT22;2328;48.170;11.602;2022-12-01T11:42:36;2.70;99.90
4631;DHT22;2328;48.170;11.602;2022-12-01T11:45:22;2.70;99.90
4631;DHT22;2328;48.170;11.602;2022-12-01T11:48:01;2.20;99.90
4631;DHT22;2328;48.170;11.602;2022-12-01T11:50:32;2.60;99.90
4631;DHT22;2328;48.170;11.602;2022-12-01T11:53:02;2.70;99.90
4631;DHT22;2328;48.170;11.602;2022-12-01T11:55:31;2.70;99.90
4631;DHT22;2328;48.170;11.602;2022-12-01T11:58:02;2.30;99.90
4631;DHT22;2328;48.170;11.602;2022-12-01T12:00:37;2.00;99.90
4631;DHT22;2328;48.170;11.602;2022-12-01T12:03:25;3.10;99.90
4631;DHT22;2328;48.170;11.602;2022-12-01T12:06:12;3.00;99.90
4631;DHT22;2328;48.170;11.602;2022-12-01T12:09:14;3.30;99.90
4631;DHT22;2328;48.170;11.602;2022-12-01T12:11:55;2.90;99.90
4631;DHT22;2328;48.170;11.602;2022-12-01T12:14:35;2.40;99.90
4631;DHT22;2328;48.170;11.602;2022-12-01T12:17:15;2.80;99.90
4631;DHT22;2328;48.170;11.602;2022-12-01T12:22:46;2.90;99.90
4631;DHT22;2328;48.170;11.602;2022-12-01T12:25:27;2.30;99.90
4631;DHT22;2328;48.170;11.602;2022-12-01T12:28:14;2.80;99.90
4631;DHT22;2328;48.170;11.602;2022-12-01T12:30:51;2.60;99.90
4631;DHT22;2328;48.170;11.602;2022-12-01T12:33:43;2.80;99.90
4631;DHT22;2328;48.170;11.602;2022-12-01T12:36:26;2.70;99.90
4631;DHT22;2328;48.170;11.602;2022-12-01T12:39:06;2.70;99.90
4631;DHT22;2328;48.170;11.602;2022-12-01T12:41:44;2.30;99.90
4631;DHT22;2328;48.170;11.602;2022-12-01T12:44:42;2.40;99.90
4631;DHT22;2328;48.170;11.602;2022-12-01T12:47:24;2.60;99.90
4631;DHT22;2328;48.170;11.602;2022-12-01T12:50:07;3.00;99.90
4631;DHT22;2328;48.170;11.602;2022-12-01T12:52:41;3.10;99.90
4631;DHT22;2328;48.170;11.602;2022-12-01T12:55:14;2.50;99.90
4631;DHT22;2328;48.170;11.602;2022-12-01T12:57:48;2.50;99.90
4631;DHT22;2328;48.170;11.602;2022-12-01T13:00:21;2.90;99.90
4631;DHT22;2328;48.170;11.602;2022-12-01T13:02:54;2.90;99.90
4631;DHT22;2328;48.170;11.602;2022-12-01T13:05:26;2.70;99.90
4631;DHT22;2328;48.170;11.602;2022-12-01T13:08:00;2.50;99.90
4631;DHT22;2328;48.170;11.602;2022-12-01T13:10:34;3.10;99.90
4631;DHT22;2328;48.170;11.602;2022-12-01T13:13:15;2.90;99.90
4631;DHT22;2328;48.170;11.602;2022-12-01T13:16:09;2.80;99.90
4631;DHT22;2328;48.170;11.602;2022-12-01T13:18:41;2.60;99.90
4631;DHT22;2328;48.170;11.602;2022-12-01T13:21:15;3.10;99.90
4631;DHT22;2328;48.170;11.602;2022-12-01T13:23:51;3.10;99.90
4631;DHT22;2328;48.170;11.602;2022-12-01T13:26:22;2.50;99.90
4631;DHT22;2328;48.170;11.602;2022-12-01T13:28:53;2.70;99.90
4631;DHT22;2328;48.170;11.602;2022-12-01T13:31:41;2.90;99.90
4631;DHT22;2328;48.170;11.602;2022-12-01T13:34:21;2.30;99.90
4631;DHT22;2328;48.170;11.602;2022-12-01T13:36:57;2.70;99.90
4631;DHT22;2328;48.170;11.602;2022-12-01T13:39:32;2.90;99.90
4631;DHT22;2328;48.170;11.602;2022-12-01T13:42:05;2.80;99.90
4631;DHT22;2328;48.170;11.602;2022-12-01T13:44:39;2.70;99.90
4631;DHT22;2328;48.170;11.602;2022-12-01T13:47:30;2.90;99.90
4631;DHT22;2328;48.170;11.602;2022-12-01T13:53:30;2.60;99.90
4631;DHT22;2328;48.170;11.602;2022-12-01T13:59:43;2.70;99.90
4631;DHT22;2328;48.170;11.602;2022-12-01T14:02:33;2.60;99.90
4631;DHT22;2328;48.170;11.602;2022-12-01T14:08:45;2.70;99.90
4631;DHT22;2328;48.170;11.602;2022-12-01T14:11:20;2.70;99.90
4631;DHT22;2328;48.170;11.602;2022-12-01T14:13:52;2.10;99.90
4631;DHT22;2328;48.170;11.602;2022-12-01T14:16:24;2.80;99.90
4631;DHT22;2328;48.170;11.602;2022-12-01T14:19:02;2.70;99.90
4631;DHT22;2328;48.170;11.602;2022-12-01T14:21:40;2.50;99.90
4631;DHT22;2328;48.170;11.602;2022-12-01T14:24:22;2.80;99.90
4631;DHT22;2328;48.170;11.602;2022-12-01T14:27:05;2.60;99.90
4631;DHT22;2328;48.170;11.602;2022-12-01T14:29:54;2.80;99.90
4631;DHT22;2328;48.170;11.602;2022-12-01T14:32:42;2.80;99.90
4631;DHT22;2328;48.170;11.602;2022-12-01T14:35:14;2.70;99.90
4631;DHT22;2328;48.170;11.602;2022-12-01T14:37:46;2.40;99.90
4631;DHT22;2328;48.170;11.602;2022-12-01T14:40:22;2.80;99.90
4631;DHT22;2328;48.170;11.602;2022-12-01T14:42:54;2.80;99.90
4631;DHT22;2328;48.170;11.602;2022-12-01T14:45:52;2.80;99.90
4631;DHT22;2328;48.170;11.602;2022-12-01T14:48:39;2.70;99.90
4631;DHT22;2328;48.170;11.602;2022-12-01T14:51:15;2.60;99.90
4631;DHT22;2328;48.170;11.602;2022-12-01T14:53:48;2.40;99.90
4631;DHT22;2328;48.170;11.602;2022-12-01T14:56:19;2.10;99.90
4631;DHT22;2328;48.170;11.602;2022-12-01T14:58:57;2.80;99.90
4631;DHT22;2328;48.170;11.602;2022-12-01T15:01:31;2.40;99.90
4631;DHT22;2328;48.170;11.602;2022-12-01T15:04:04;2.70;99.90
4631;DHT22;2328;48.170;11.602;2022-12-01T15:06:34;2.60;99.90
4631;DHT22;2328;48.170;11.602;2022-12-01T15:09:09;2.40;99.90
4631;DHT22;2328;48.170;11.602;2022-12-01T15:11:59;2.50;99.90
4631;DHT22;2328;48.170;11.602;2022-12-01T15:14:30;2.00;99.90
4631;DHT22;2328;48.170;11.602;2022-12-01T15:16:59;2.80;99.90
4631;DHT22;2328;48.170;11.602;2022-12-01T15:19:40;2.40;99.90
4631;DHT22;2328;48.170;11.602;2022-12-01T15:22:16;2.00;99.90
4631;DHT22;2328;48.170;11.602;2022-12-01T15:24:45;2.40;99.90
4631;DHT22;2328;48.170;11.602;2022-12-01T15:27:24;2.60;99.90
4631;DHT22;2328;48.170;11.602;2022-12-01T15:29:53;2.20;99.90
4631;DHT22;2328;48.170;11.602;2022-12-01T15:32:25;2.50;99.90
4631;DHT22;2328;48.170;11.602;2022-12-01T15:35:03;2.30;99.90
4631;DHT22;2328;48.170;11.602;2022-12-01T15:37:46;2.40;99.90
4631;DHT22;2328;48.170;11.602;2022-12-01T15:40:16;2.20;99.90
4631;DHT22;2328;48.170;11.602;2022-12-01T15:43:18;2.50;99.90
4631;DHT22;2328;48.170;11.602;2022-12-01T15:45:52;2.60;99.90
4631;DHT22;2328;48.170;11.602;2022-12-01T15:48:32;2.50;99.90
4631;DHT22;2328;48.170;11.602;2022-12-01T15:51:14;2.80;99.90
4631;DHT22;2328;48.170;11.602;2022-12-01T15:53:52;2.40;99.90
4631;DHT22;2328;48.170;11.602;2022-12-01T15:56:24;2.60;99.90
4631;DHT22;2328;48.170;11.602;2022-12-01T15:58:57;2.50;99.90
4631;DHT22;2328;48.170;11.602;2022-12-01T16:01:29;2.50;99.90
4631;DHT22;2328;48.170;11.602;2022-12-01T16:04:00;1.80;99.90
4631;DHT22;2328;48.170;11.602;2022-12-01T16:06:32;2.50;99.90
4631;DHT22;2328;48.170;11.602;2022-12-01T16:09:04;2.00;99.90
4631;DHT22;2328;48.170;11.602;2022-12-01T16:11:33;2.60;99.90
4631;DHT22;2328;48.170;11.602;2022-12-01T16:14:03;2.40;99.90
4631;DHT22;2328;48.170;11.602;2022-12-01T16:16:37;2.50;99.90
4631;DHT22;2328;48.170;11.602;2022-12-01T16:19:24;2.20;99.90
4631;DHT22;2328;48.170;11.602;2022-12-01T16:21:58;2.30;99.90
4631;DHT22;2328;48.170;11.602;2022-12-01T16:24:30;2.20;99.90
4631;DHT22;2328;48.170;11.602;2022-12-01T16:27:02;2.20;99.90
4631;DHT22;2328;48.170;11.602;2022-12-01T16:29:34;2.50;99.90
4631;DHT22;2328;48.170;11.602;2022-12-01T16:34:56;2.50;99.90
4631;DHT22;2328;48.170;11.602;2022-12-01T16:37:26;2.50;99.90
4631;DHT22;2328;48.170;11.602;2022-12-01T16:39:55;2.00;99.90
4631;DHT22;2328;48.170;11.602;2022-12-01T16:42:24;2.50;99.90
4631;DHT22;2328;48.170;11.602;2022-12-01T16:44:52;2.60;99.90
4631;DHT22;2328;48.170;11.602;2022-12-01T16:47:22;2.30;99.90
4631;DHT22;2328;48.170;11.602;2022-12-01T16:49:51;2.60;99.90
4631;DHT22;2328;48.170;11.602;2022-12-01T16:52:19;2.60;99.90
4631;DHT22;2328;48.170;11.602;2022-12-01T16:55:31;2.80;99.90
4631;DHT22;2328;48.170;11.602;2022-12-01T16:58:00;2.50;99.90
4631;DHT22;2328;48.170;11.602;2022-12-01T17:00:28;2.10;99.90
4631;DHT22;2328;48.170;11.602;2022-12-01T17:02:57;2.30;99.90
4631;DHT22;2328;48.170;11.602;2022-12-01T17:05:26;2.20;99.90